Terminal Aerodrome Forecast
Issued by NWS Sterling, VA

Current Version | Previous Version | Graphics & Text | Print | Product List | Glossary On
Versions: 1 2 3 4 5 6 7 8 9 10 11 12 13 14 15 16 17 18 19 20 21 22
350
FTUS41 KLWX 151742
TAFMRB
TAF
KMRB 151742Z 1518/1618 00000KT 5SM BR BKN015
     FM160600 00000KT P6SM FEW250
     FM160700 00000KT 1 1/2SM BR FEW250
     FM160900 00000KT 4SM BR FEW250
     FM161100 00000KT 2SM BR FEW250=

USA.gov is the U.S. government's official web portal to all federal, state and local government web resources and services.